FW4650 Offingawier NL current weather conditions

sailwx.info

Wind from 230 at 22 knots gusting 31

Air temperature 6.7° C

Last reported at 2019-Dec-14 11:55 UTC.
Time now 2019-Dec-14 12:31 UTC

Location: N 53°01' E 005°44'.
View on Google Maps.

See reports from other nearby stations

  
Tides and Currents Weather Stations Pressure Air Temp Water Temp Dewpoint Dewpoint Depression Visibility Wind Speed Wind Dir Waves Ship Positions
date/time (UTC)wind fromknots sea level pressurealtimeterstation pressurevisibilityair tempwater tempwave heightnotes
2019-Dec-14 12:05 235 20 gusting 28 6.7
2019-Dec-14 11:55 230 22 gusting 31 6.7
2019-Dec-14 11:45 231 22 gusting 30 6.1
2019-Dec-14 11:35 232 23 gusting 28 6.7
2019-Dec-14 11:25 233 22 gusting 32 6.7
2019-Dec-14 11:15 234 23 gusting 31 6.7
2019-Dec-14 11:05 237 30 gusting 41 6.7
2019-Dec-14 10:55 236 22 gusting 29 6.7
2019-Dec-14 10:45 234 25 gusting 37 6.7
2019-Dec-14 10:35 233 25 gusting 32 6.7
2019-Dec-14 10:25 246 15 gusting 21 6.7
2019-Dec-14 10:15 234 25 gusting 34 7.2
2019-Dec-14 10:05 235 21 gusting 31 6.7
2019-Dec-14 09:55 242 17 gusting 24 5.6
2019-Dec-14 09:45 233 20 gusting 25 6.1
2019-Dec-14 09:35 234 19 gusting 25 6.1
2019-Dec-14 09:25 239 17 gusting 25 6.1
2019-Dec-14 09:05 240 17 gusting 26 5.6
2019-Dec-14 08:55 234 17 gusting 22 5.6
2019-Dec-14 08:45 233 18 gusting 24 5.6
2019-Dec-14 08:35 239 15 gusting 19 5.6
2019-Dec-14 08:25 246 16 gusting 23 5.6
2019-Dec-14 08:15 232 18 gusting 24 5.6
2019-Dec-14 08:05 231 18 gusting 24 5.6
2019-Dec-14 07:55 231 16 gusting 20 5.6
2019-Dec-14 07:45 231 14 gusting 21 5.6
2019-Dec-14 07:35 224 13 gusting 19 5.0
2019-Dec-14 07:25 224 12 gusting 15 5.0
2019-Dec-14 07:15 223 12 gusting 18 5.0
2019-Dec-14 07:05 225 12 gusting 19 4.4
2019-Dec-14 06:55 226 11 gusting 16 5.0
2019-Dec-14 06:45 223 13 gusting 19 4.4
2019-Dec-14 06:35 218 11 gusting 16 4.4
2019-Dec-14 06:25 219 13 gusting 17 4.4
2019-Dec-14 06:15 212 13 gusting 19 4.4
2019-Dec-14 06:05 205 12 gusting 19 4.4
2019-Dec-14 05:55 204 13 gusting 18 4.4
2019-Dec-14 05:45 203 12 gusting 17 4.4
2019-Dec-14 05:35 200 12 gusting 17 4.4
2019-Dec-14 05:25 199 12 gusting 17 4.4
2019-Dec-14 05:15 201 11 gusting 16 4.4
2019-Dec-14 05:05 207 10 gusting 13 4.4
2019-Dec-14 04:55 206 11 gusting 16 4.4
2019-Dec-14 04:45 208 13 gusting 17 4.4
2019-Dec-14 04:35 212 13 gusting 20 4.4
2019-Dec-14 04:25 216 10 gusting 17 4.4
2019-Dec-14 04:15 217 12 gusting 17 4.4
2019-Dec-14 04:05 208 14 gusting 20 5.0
2019-Dec-14 03:55 203 15 gusting 23 4.4
2019-Dec-14 03:45 201 15 gusting 23 5.0
2019-Dec-14 03:35 199 17 gusting 26 5.0
2019-Dec-14 03:25 199 16 gusting 23 5.0
2019-Dec-14 03:15 202 16 gusting 23 5.0
2019-Dec-14 03:05 201 15 gusting 23 5.0
2019-Dec-14 02:55 202 16 gusting 21 5.0
2019-Dec-14 02:45 195 17 gusting 24 5.0
2019-Dec-14 02:35 199 15 gusting 21 5.0
2019-Dec-14 02:25 197 18 gusting 26 5.0
2019-Dec-14 02:15 199 15 gusting 20 5.0
2019-Dec-14 02:05 200 15 gusting 20 5.0
2019-Dec-14 01:55 198 14 gusting 20 5.0
2019-Dec-14 01:45 201 13 gusting 18 5.0
2019-Dec-14 01:35 200 14 gusting 20 5.0
2019-Dec-14 01:25 196 13 gusting 19 5.0
2019-Dec-14 01:15 197 15 gusting 20 5.0
2019-Dec-14 01:05 195 15 gusting 22 5.0
2019-Dec-14 00:55 198 14 gusting 21 5.0
2019-Dec-14 00:45 214 9 gusting 14 5.0
2019-Dec-14 00:35 201 13 gusting 19 5.0
2019-Dec-14 00:25 199 11 gusting 18 5.0
2019-Dec-14 00:15 197 12 gusting 16 5.0
2019-Dec-14 00:05 192 11 gusting 16 4.4
2019-Dec-13 23:55 190 10 gusting 13 4.4
2019-Dec-13 23:45 199 9 gusting 13 5.0
2019-Dec-13 23:35 203 8 gusting 13 5.0
2019-Dec-13 23:25 211 10 gusting 14 5.0
2019-Dec-13 23:15 213 13 gusting 18 5.0
2019-Dec-13 23:05 214 13 gusting 21 5.0
2019-Dec-13 22:55 209 13 gusting 21 5.0
2019-Dec-13 22:45 204 13 gusting 24 5.0
2019-Dec-13 22:35 208 13 gusting 18 5.0
2019-Dec-13 22:25 214 12 gusting 17 5.0
2019-Dec-13 22:15 211 9 gusting 16 5.0
2019-Dec-13 22:05 213 10 gusting 15 5.0
2019-Dec-13 21:55 204 9 gusting 14 5.0
2019-Dec-13 21:45 224 5 gusting 13 4.4
2019-Dec-13 21:35 210 9 gusting 13 4.4
2019-Dec-13 21:25 211 8 gusting 12 4.4
2019-Dec-13 21:15 226 11 gusting 18 5.0
2019-Dec-13 21:05 217 12 gusting 18 5.0
2019-Dec-13 20:55 209 9 gusting 13 4.4
2019-Dec-13 20:45 204 8 gusting 12 4.4
2019-Dec-13 20:35 196 7 gusting 9 4.4
2019-Dec-13 20:25 210 8 gusting 12 5.0
2019-Dec-13 20:15 224 7 gusting 9 5.0
2019-Dec-13 20:05 219 7 gusting 11 5.0
2019-Dec-13 19:55 219 7 gusting 11 5.0
2019-Dec-13 19:45 208 8 gusting 11 4.4
2019-Dec-13 19:35 211 10 gusting 15 4.4
2019-Dec-13 19:25 207 7 gusting 10 4.4
2019-Dec-13 19:15 208 7 gusting 10 4.4
2019-Dec-13 19:05 214 6 gusting 8 4.4
2019-Dec-13 18:55 197 7 gusting 9 3.9
2019-Dec-13 18:45 197 6 gusting 8 3.9
2019-Dec-13 18:35 191 7 gusting 9 3.9
2019-Dec-13 18:25 189 8 gusting 10 3.9
2019-Dec-13 18:15 195 8 gusting 11 3.9
2019-Dec-13 18:05 184 9 gusting 11 3.9
2019-Dec-13 17:55 181 9 gusting 11 3.9
2019-Dec-13 17:45 186 9 gusting 11 3.9
2019-Dec-13 17:35 184 8 gusting 9 3.9
2019-Dec-13 17:25 182 7 gusting 9 3.9
2019-Dec-13 17:15 187 8 gusting 10 3.9
2019-Dec-13 17:05 176 7 gusting 8 3.9
2019-Dec-13 16:55 200 6 gusting 9 3.9
2019-Dec-13 16:45 198 7 gusting 9 3.9
2019-Dec-13 16:35 200 6 gusting 8 3.9
2019-Dec-13 16:25 198 6 gusting 8 3.9
2019-Dec-13 16:15 198 6 gusting 7 3.9
2019-Dec-13 16:05 199 6 gusting 7 3.9
2019-Dec-13 15:55 199 6 gusting 7 3.9
2019-Dec-13 15:45 196 6 gusting 7 3.9
2019-Dec-13 15:35 186 6 gusting 6 3.9
2019-Dec-13 15:25 181 5 gusting 6 3.9
2019-Dec-13 15:15 171 4 gusting 6 3.9
2019-Dec-13 15:05 185 4 gusting 5 3.9
2019-Dec-13 14:55 179 4 gusting 5 3.9
2019-Dec-13 14:45 169 5 gusting 5 3.9
2019-Dec-13 14:35 170 5 gusting 5 3.9
2019-Dec-13 14:25 175 4 gusting 6 3.9
2019-Dec-13 14:15 187 4 gusting 5 3.9
2019-Dec-13 14:05 177 4 gusting 5 3.9
2019-Dec-13 13:55 177 4 gusting 5 3.9
2019-Dec-13 13:45 180 3 gusting 4 4.4
2019-Dec-13 13:35 193 2 gusting 4 4.4
2019-Dec-13 13:25 181 4 gusting 5 4.4
2019-Dec-13 13:15 153 3 gusting 4 4.4
2019-Dec-13 13:05 166 4 gusting 5 4.4
2019-Dec-13 12:55 148 2 gusting 5 3.9
2019-Dec-13 12:45 118 3 gusting 6 3.9
2019-Dec-13 12:35 109 4 gusting 8 3.9
2019-Dec-13 12:25 125 4 gusting 8 3.9
2019-Dec-13 12:15 132 4 gusting 8 3.9
2019-Dec-13 12:05 085 3 gusting 7 3.9
2019-Dec-13 11:55 089 4 gusting 8 3.9
2019-Dec-13 11:45 080 4 gusting 8 3.9
2019-Dec-13 11:35 074 3 gusting 8 3.9
2019-Dec-13 11:25 001 4 gusting 8 3.3
2019-Dec-13 11:15 020 3 gusting 8 3.3
2019-Dec-13 11:05 3.3
2019-Dec-13 10:55 004 4 gusting 7 3.3
2019-Dec-13 10:45 057 5 gusting 8 3.3
2019-Dec-13 10:35 113 7 gusting 9 3.3
2019-Dec-13 10:25 117 8 gusting 9 3.3
2019-Dec-13 10:15 112 8 gusting 10 3.3
2019-Dec-13 10:05 114 8 gusting 9 3.3
2019-Dec-13 09:55 109 8 gusting 10 3.3
2019-Dec-13 09:45 116 8 gusting 10 3.3
2019-Dec-13 09:35 113 9 gusting 11 3.3
2019-Dec-13 09:25 113 9 gusting 11 3.3
2019-Dec-13 09:15 116 10 gusting 12 3.3
2019-Dec-13 09:05 118 11 gusting 13 3.3
2019-Dec-13 08:55 120 10 gusting 13 3.3
2019-Dec-13 08:45 118 10 gusting 13 2.8
2019-Dec-13 08:35 120 10 gusting 13 2.8
2019-Dec-13 08:25 118 12 gusting 14 2.8
2019-Dec-13 08:15 118 13 gusting 15 2.8
2019-Dec-13 08:05 118 12 gusting 14 2.8
2019-Dec-13 07:55 115 13 gusting 14 2.8
2019-Dec-13 07:45 119 11 gusting 13 2.8
2019-Dec-13 07:35 124 12 gusting 14 2.8
2019-Dec-13 07:25 122 12 gusting 15 2.8
2019-Dec-13 07:15 123 13 gusting 14 2.8
2019-Dec-13 07:05 128 12 gusting 15 2.8
2019-Dec-13 06:55 125 14 gusting 19 2.8
2019-Dec-13 06:45 125 16 gusting 21 2.8
2019-Dec-13 06:35 126 15 gusting 19 2.8
2019-Dec-13 06:25 124 16 gusting 19 2.8
2019-Dec-13 06:15 126 16 gusting 20 2.8
2019-Dec-13 06:05 127 16 gusting 19 2.8
2019-Dec-13 05:55 129 16 gusting 19 2.8
2019-Dec-13 05:45 131 18 gusting 21 2.8
2019-Dec-13 05:35 128 17 gusting 20 2.8
2019-Dec-13 05:25 130 17 gusting 21 2.8
2019-Dec-13 05:15 134 19 gusting 23 2.8
2019-Dec-13 05:05 134 19 gusting 23 2.8
2019-Dec-13 04:55 133 19 gusting 23 2.8
2019-Dec-13 04:45 135 19 gusting 22 2.8
2019-Dec-13 04:35 138 19 gusting 25 2.8
2019-Dec-13 04:25 139 20 gusting 26 3.3
2019-Dec-13 04:15 140 19 gusting 24 3.3
2019-Dec-13 04:05 142 19 gusting 24 3.3
2019-Dec-13 03:55 142 21 gusting 26 3.3
2019-Dec-13 03:45 140 21 gusting 28 3.3
2019-Dec-13 03:35 143 21 gusting 26 3.3
2019-Dec-13 03:25 144 22 gusting 27 3.3
2019-Dec-13 03:15 144 21 gusting 26 3.3
2019-Dec-13 03:05 145 23 gusting 28 3.3
2019-Dec-13 02:55 145 22 gusting 27 3.3
2019-Dec-13 02:45 145 24 gusting 29 3.3
2019-Dec-13 02:35 141 22 gusting 28 3.3
2019-Dec-13 02:25 144 24 gusting 30 3.9
2019-Dec-13 02:15 144 23 gusting 31 3.9
2019-Dec-13 02:05 144 24 gusting 29 3.9
2019-Dec-13 01:55 141 23 gusting 28 4.4
2019-Dec-13 01:45 143 25 gusting 32 4.4
2019-Dec-13 01:35 143 25 gusting 32 4.4
2019-Dec-13 01:25 143 22 gusting 29 4.4
2019-Dec-13 01:15 142 24 gusting 32 4.4
2019-Dec-13 01:05 138 23 gusting 29 4.4
2019-Dec-13 00:55 138 23 gusting 28 4.4
2019-Dec-13 00:45 138 23 gusting 29 4.4
2019-Dec-13 00:35 138 22 gusting 28 3.9
2019-Dec-13 00:25 139 23 gusting 30 3.9
2019-Dec-13 00:15 137 24 gusting 31 3.9
2019-Dec-13 00:05 137 23 gusting 29 3.9
2019-Dec-12 23:55 138 21 gusting 26 4.4
2019-Dec-12 23:45 136 23 gusting 30 4.4
2019-Dec-12 23:35 136 21 gusting 26 3.9
2019-Dec-12 23:25 136 23 gusting 28 3.9
2019-Dec-12 23:15 137 20 gusting 26 4.4
2019-Dec-12 23:05 132 22 gusting 28 3.9
2019-Dec-12 22:55 136 22 gusting 26 4.4
2019-Dec-12 22:45 141 21 gusting 29 4.4
2019-Dec-12 22:35 140 22 gusting 29 4.4
2019-Dec-12 22:25 137 21 gusting 27 4.4
2019-Dec-12 22:15 139 21 gusting 27 4.4
2019-Dec-12 22:05 140 22 gusting 28 4.4
2019-Dec-12 21:55 142 23 gusting 32 4.4
2019-Dec-12 21:45 143 20 gusting 28 4.4
2019-Dec-12 21:35 145 23 gusting 29 4.4
2019-Dec-12 21:25 144 22 gusting 30 4.4
2019-Dec-12 21:15 147 22 gusting 28 4.4
2019-Dec-12 21:05 148 21 gusting 27 4.4
2019-Dec-12 20:55 148 21 gusting 29 4.4
2019-Dec-12 20:45 147 23 gusting 29 4.4
2019-Dec-12 20:35 147 23 gusting 31 4.4
2019-Dec-12 20:25 148 24 gusting 29 4.4
2019-Dec-12 20:15 148 24 gusting 31 4.4
2019-Dec-12 20:05 148 22 gusting 29 4.4
2019-Dec-12 19:55 146 23 gusting 30 3.9
2019-Dec-12 19:45 145 21 gusting 27 3.9
2019-Dec-12 19:35 147 24 gusting 29 3.9
2019-Dec-12 19:25 146 23 gusting 28 3.9
2019-Dec-12 19:15 145 23 gusting 28 3.9
2019-Dec-12 19:05 146 22 gusting 29 3.9
2019-Dec-12 18:55 147 22 gusting 27 3.9
2019-Dec-12 18:45 144 20 gusting 26 3.9
2019-Dec-12 18:35 145 21 gusting 26 3.9
2019-Dec-12 18:25 144 20 gusting 26 3.9
2019-Dec-12 18:15 144 20 gusting 26 3.9
2019-Dec-12 18:05 147 20 gusting 25 3.9
2019-Dec-12 17:55 150 21 gusting 27 3.9
2019-Dec-12 17:45 144 19 gusting 24 3.9
2019-Dec-12 17:35 145 19 gusting 23 3.9
2019-Dec-12 17:25 149 20 gusting 26 3.9
2019-Dec-12 17:15 147 19 gusting 25 3.9
2019-Dec-12 17:05 147 19 gusting 23 3.9
2019-Dec-12 16:55 145 18 gusting 22 3.3
2019-Dec-12 16:45 144 18 gusting 21 3.3
2019-Dec-12 16:35 145 17 gusting 21 3.3
2019-Dec-12 16:25 144 15 gusting 18 3.3
2019-Dec-12 16:15 143 13 gusting 16 3.3
2019-Dec-12 16:05 149 13 gusting 17 3.3
2019-Dec-12 15:55 150 14 gusting 19 3.3
2019-Dec-12 15:45 148 14 gusting 18 3.9
2019-Dec-12 15:35 150 13 gusting 16 3.9
2019-Dec-12 15:25 150 13 gusting 16 3.9
2019-Dec-12 15:15 154 15 gusting 19 3.9
2019-Dec-12 15:05 155 15 gusting 19 3.9
2019-Dec-12 14:55 157 15 gusting 19 3.9
2019-Dec-12 14:45 157 14 gusting 19 4.4
2019-Dec-12 14:35 156 15 gusting 19 4.4
2019-Dec-12 14:25 154 14 gusting 18 4.4
2019-Dec-12 14:15 162 15 gusting 19 4.4
2019-Dec-12 14:05 164 14 gusting 17 4.4
2019-Dec-12 13:55 170 14 gusting 19 4.4
2019-Dec-12 13:45 172 16 gusting 19 4.4
2019-Dec-12 13:35 171 14 gusting 17 4.4
2019-Dec-12 13:25 175 14 gusting 18 4.4
2019-Dec-12 13:15 177 14 gusting 18 4.4
2019-Dec-12 13:05 175 14 gusting 19 5.0
2019-Dec-12 12:55 171 14 gusting 19 5.0
2019-Dec-12 12:45 177 14 gusting 19 4.4
2019-Dec-12 12:35 178 16 gusting 20 5.0
2019-Dec-12 12:25 179 15 gusting 18 5.0
2019-Dec-12 12:15 179 12 gusting 16 4.4
2019-Dec-12 12:05 193 13 gusting 20 5.0